KBRD/BRD METAR and TAF weather

Enter ICAO airport designator
Station Type Date Time Source
KBRD METAR 2022/05/25 00:53 UTC NOAA

KBRD 250053Z AUTO 13004KT 10SM CLR 18/02 A3013 RMK AO2 SLP206 T01830022 TSNO


Station Type Date Time Source
KBRD Decoded METAR 2022/05/25 00:53 UTC NOAA

BRAINERD-CROW WING CO AIRPORT , MN, United States (KBRD) 46-24N 94-08W 372M
May 24, 2022 - 08:53 PM EDT / 2022.05.25 0053 UTC
Wind: from the SE (130 degrees) at 5 MPH (4 KT):0
Visibility: 10 mile(s):0
Sky conditions: clear
Temperature: 64.9 F (18.3 C)
Dew Point: 36.0 F (2.2 C)
Relative Humidity: 34%
Pressure (altimeter): 30.13 in. Hg (1020 hPa)
ob: KBRD 250053Z AUTO 13004KT 10SM CLR 18/02 A3013 RMK AO2 SLP206 T01830022 TSNO
cycle: 1

Station Type Date Time Source
KBRD TAF 2022/05/24 18:30 UTC NOAA

TAF KBRD 241727Z 2418/2518 18006KT P6SM FEW070
FM251100 VRB04KT P6SM VCSH SCT045 OVC090
FM251400 09007G15KT 6SM -RA OVC060

Example: see airport list